createdAt,value
2019-03-28T00:03:59.950Z,8.90
2019-03-28T00:10:05.061Z,8.90
2019-03-28T00:16:09.943Z,8.90
2019-03-28T00:22:20.885Z,8.90
2019-03-28T00:28:25.772Z,8.90
2019-03-28T00:34:30.720Z,8.90
2019-03-28T00:40:35.855Z,8.90
2019-03-28T00:46:40.742Z,8.80
2019-03-28T00:52:45.883Z,8.90
2019-03-28T00:58:51.054Z,8.90
2019-03-28T01:04:56.252Z,8.80
2019-03-28T01:11:01.179Z,8.80
2019-03-28T01:17:06.552Z,8.90
2019-03-28T01:23:11.418Z,8.80
2019-03-28T01:29:16.358Z,8.80
2019-03-28T01:35:21.280Z,8.80
2019-03-28T01:41:26.237Z,8.80
2019-03-28T01:47:31.186Z,8.70
2019-03-28T01:53:36.069Z,8.80
2019-03-28T01:59:40.963Z,8.80
2019-03-28T02:05:45.849Z,8.70
2019-03-28T02:11:50.739Z,8.70
2019-03-28T02:17:55.715Z,8.70
2019-03-28T02:24:01.263Z,8.70
2019-03-28T02:30:07.316Z,8.70
2019-03-28T02:36:12.199Z,8.70
2019-03-28T02:42:17.191Z,8.70
2019-03-28T02:48:22.361Z,8.60
2019-03-28T02:54:27.266Z,8.60
2019-03-28T03:00:32.157Z,8.70
2019-03-28T03:06:37.047Z,8.70
2019-03-28T03:12:41.968Z,8.60
2019-03-28T03:18:46.856Z,8.60
2019-03-28T03:24:51.895Z,8.60
2019-03-28T03:30:57.106Z,8.60
2019-03-28T03:37:02.087Z,8.60
2019-03-28T03:43:07.081Z,8.60
2019-03-28T03:49:11.978Z,8.50
2019-03-28T03:55:16.888Z,8.60
2019-03-28T04:01:21.873Z,8.50
2019-03-28T04:07:26.820Z,8.50
2019-03-28T04:13:31.843Z,8.50
2019-03-28T04:19:36.736Z,8.50
2019-03-28T04:25:41.685Z,8.50
2019-03-28T04:31:46.564Z,8.50
2019-03-28T04:37:51.458Z,8.50
2019-03-28T04:43:56.433Z,8.50
2019-03-28T04:50:01.568Z,8.50
2019-03-28T04:56:06.448Z,8.40
2019-03-28T05:02:11.502Z,8.30
2019-03-28T05:08:16.366Z,8.30
2019-03-28T05:14:21.223Z,8.40
2019-03-28T05:20:26.231Z,8.30
2019-03-28T05:26:31.126Z,8.30
2019-03-28T05:32:36.144Z,8.30
2019-03-28T05:38:41.023Z,8.30
2019-03-28T05:44:45.946Z,8.30
2019-03-28T05:50:50.968Z,8.30
2019-03-28T05:56:55.900Z,8.40
2019-03-28T06:03:00.730Z,8.40
2019-03-28T06:09:07.287Z,8.40
2019-03-28T06:15:12.548Z,8.40
2019-03-28T06:21:17.439Z,8.40
2019-03-28T06:27:22.318Z,8.50
2019-03-28T06:33:27.293Z,8.50
2019-03-28T06:39:32.303Z,8.50
2019-03-28T06:45:37.461Z,8.50
2019-03-28T06:51:42.379Z,8.60
2019-03-28T06:57:47.371Z,8.60
2019-03-28T07:03:52.753Z,8.60
2019-03-28T07:09:57.713Z,8.70
2019-03-28T07:16:03.015Z,8.80
2019-03-28T07:22:07.921Z,8.80
2019-03-28T07:28:12.799Z,8.90
2019-03-28T07:34:17.697Z,9.00
2019-03-28T07:40:22.649Z,9.00
2019-03-28T07:46:27.634Z,9.10
2019-03-28T07:52:32.510Z,9.10
2019-03-28T07:58:37.446Z,9.30
2019-03-28T08:04:42.336Z,9.50
2019-03-28T08:10:47.264Z,9.50
2019-03-28T08:16:52.287Z,9.60
2019-03-28T08:22:57.209Z,9.60
2019-03-28T08:29:02.162Z,9.80
2019-03-28T08:35:08.747Z,9.90
2019-03-28T08:41:13.718Z,10.00
2019-03-28T08:47:18.657Z,10.10
2019-03-28T08:53:23.703Z,10.10
2019-03-28T08:59:28.608Z,10.20
2019-03-28T09:05:33.546Z,10.30
2019-03-28T09:11:38.425Z,10.30
2019-03-28T09:17:43.352Z,10.50
2019-03-28T09:23:48.211Z,10.60
2019-03-28T09:29:53.510Z,10.80
2019-03-28T09:36:01.392Z,10.80
2019-03-28T09:42:06.284Z,11.10
2019-03-28T09:48:11.867Z,11.20
2019-03-28T09:54:16.979Z,11.50
2019-03-28T10:00:22.455Z,11.60
2019-03-28T10:06:27.471Z,11.70
2019-03-28T10:12:34.241Z,11.80
2019-03-28T10:18:38.915Z,12.20
2019-03-28T10:24:44.535Z,12.30
2019-03-28T10:30:49.537Z,12.70
2019-03-28T10:36:54.447Z,12.80
2019-03-28T10:42:59.349Z,13.10
2019-03-28T10:49:04.331Z,13.30
2019-03-28T10:55:09.345Z,13.20
2019-03-28T11:01:16.691Z,13.20
2019-03-28T11:07:20.839Z,13.10
2019-03-28T11:13:25.799Z,13.10
2019-03-28T11:19:30.821Z,13.00
2019-03-28T11:25:35.950Z,12.80
2019-03-28T11:31:46.884Z,12.90
2019-03-28T11:37:47.367Z,13.00
2019-03-28T11:43:52.233Z,13.00
2019-03-28T11:49:57.492Z,13.10
2019-03-28T11:56:02.347Z,13.20
2019-03-28T12:02:19.113Z,13.40
2019-03-28T12:08:13.843Z,13.30
2019-03-28T12:14:18.774Z,13.00
2019-03-28T12:20:23.732Z,13.10
2019-03-28T12:26:28.667Z,13.10
2019-03-28T12:32:33.920Z,13.20
2019-03-28T12:38:38.900Z,13.40
2019-03-28T12:44:56.330Z,13.30
2019-03-28T12:50:58.848Z,13.10
2019-03-28T12:56:58.273Z,13.10
2019-03-28T13:03:03.242Z,13.20
2019-03-28T13:09:10.187Z,13.10
2019-03-28T13:15:15.092Z,13.20
2019-03-28T13:21:20.115Z,13.30
2019-03-28T13:27:24.972Z,13.30
2019-03-28T13:33:29.814Z,13.20
2019-03-28T13:39:34.722Z,13.30
2019-03-28T13:45:40.416Z,13.30
2019-03-28T13:51:45.416Z,13.70
2019-03-28T13:57:52.202Z,13.80
2019-03-28T14:03:56.924Z,13.50
2019-03-28T14:10:01.765Z,13.60
2019-03-28T14:16:06.790Z,13.70
2019-03-28T14:22:11.577Z,14.00
2019-03-28T14:28:16.405Z,13.90
2019-03-28T14:34:21.317Z,14.00
2019-03-28T14:40:26.248Z,14.00
2019-03-28T14:46:30.978Z,14.00
2019-03-28T14:52:35.837Z,14.10
2019-03-28T14:58:41.920Z,14.10
2019-03-28T15:04:46.688Z,14.00
2019-03-28T15:10:51.478Z,14.20
2019-03-28T15:16:56.241Z,14.00
2019-03-28T15:23:01.035Z,13.80
2019-03-28T15:29:05.775Z,13.90
2019-03-28T15:35:10.523Z,13.80
2019-03-28T15:41:15.321Z,13.90
2019-03-28T15:47:20.563Z,13.90
2019-03-28T15:53:25.339Z,14.00
2019-03-28T15:59:30.177Z,13.60
2019-03-28T16:05:35.111Z,13.80
2019-03-28T16:11:39.900Z,13.60
2019-03-28T16:17:44.677Z,13.50
2019-03-28T16:23:49.438Z,13.40
2019-03-28T16:29:54.397Z,13.40
2019-03-28T16:35:59.561Z,13.20
2019-03-28T16:42:04.275Z,13.20
2019-03-28T16:48:09.003Z,13.00
2019-03-28T16:54:13.774Z,13.00
2019-03-28T17:00:18.625Z,12.80
2019-03-28T17:06:24.143Z,12.80
2019-03-28T17:12:28.971Z,12.50
2019-03-28T17:18:33.777Z,12.40
2019-03-28T17:24:38.581Z,12.30
2019-03-28T17:30:43.395Z,12.20
2019-03-28T17:36:48.112Z,12.20
2019-03-28T17:42:52.845Z,12.00
2019-03-28T17:48:57.849Z,11.80
2019-03-28T17:55:03.719Z,11.70
2019-03-28T18:01:08.699Z,11.60
2019-03-28T18:07:13.457Z,11.50
2019-03-28T18:13:18.370Z,11.40
2019-03-28T18:19:23.185Z,11.20
2019-03-28T18:25:30.288Z,11.00
2019-03-28T18:31:34.612Z,10.80
2019-03-28T18:37:39.397Z,10.60
2019-03-28T18:43:44.116Z,10.50
2019-03-28T18:49:48.861Z,10.30
2019-03-28T18:55:53.656Z,10.20
2019-03-28T19:01:58.476Z,10.10
2019-03-28T19:08:04.320Z,10.00
2019-03-28T19:14:09.199Z,10.00
2019-03-28T19:20:14.567Z,9.80
2019-03-28T19:26:19.333Z,9.70
2019-03-28T19:32:24.179Z,9.60
2019-03-28T19:38:29.316Z,9.40
2019-03-28T19:44:34.126Z,9.30
2019-03-28T19:50:38.895Z,9.20
2019-03-28T19:56:43.654Z,9.10
2019-03-28T20:02:48.433Z,9.00
2019-03-28T20:08:53.154Z,9.10
2019-03-28T20:15:00.160Z,9.00
2019-03-28T20:21:04.310Z,8.90
2019-03-28T20:27:09.106Z,8.80
2019-03-28T20:33:13.849Z,8.70
2019-03-28T20:39:18.565Z,8.50
2019-03-28T20:45:23.369Z,8.40
2019-03-28T20:51:28.173Z,8.30
2019-03-28T20:57:32.923Z,8.30
2019-03-28T21:03:37.965Z,8.30
2019-03-28T21:09:42.757Z,8.30
2019-03-28T21:15:47.579Z,8.30
2019-03-28T21:21:52.471Z,8.10
2019-03-28T21:27:57.310Z,7.90
2019-03-28T21:34:02.186Z,7.80
2019-03-28T21:40:10.821Z,7.70
2019-03-28T21:46:15.610Z,7.60
2019-03-28T21:52:20.368Z,7.60
2019-03-28T21:58:25.151Z,7.50
2019-03-28T22:04:29.890Z,7.50
2019-03-28T22:10:34.743Z,7.50
2019-03-28T22:16:39.454Z,7.40
2019-03-28T22:22:44.211Z,7.30
2019-03-28T22:28:49.032Z,7.30
2019-03-28T22:34:53.838Z,7.20
2019-03-28T22:40:58.696Z,7.10
2019-03-28T22:47:03.532Z,7.10
2019-03-28T22:53:08.270Z,7.10
2019-03-28T22:59:13.054Z,7.00
2019-03-28T23:05:17.877Z,6.90
2019-03-28T23:11:22.612Z,6.90
2019-03-28T23:17:27.378Z,6.90
2019-03-28T23:23:32.096Z,6.80
2019-03-28T23:29:37.028Z,6.80
2019-03-28T23:35:41.814Z,6.90
2019-03-28T23:41:47.788Z,6.90
2019-03-28T23:47:52.645Z,7.00
2019-03-28T23:53:57.374Z,6.90
